Time;durP1;ratioP1;P1;durP2;ratioP2;P2;SDS_P1;SDS_P2;PMS_P1;PMS_P2;Temp;Humidity;BMP_temperature;BMP_pressure;BME280_temperature;BME280_humidity;BME280_pressure;Samples;Min_cycle;Max_cycle;Signal;HPM_P1;HPM_P2
2022/01/24 00:02:53;;;;;;;17.70;12.43;;;;;;;0.92;88.99;99223.66;6262153;28;20233;-68
2022/01/24 00:05:55;;;;;;;17.30;12.20;;;;;;;0.95;89.07;99222.75;6278477;28;20796;-67
2022/01/24 00:08:58;;;;;;;18.00;12.27;;;;;;;0.92;89.31;99221.06;6278814;28;20736;-67
2022/01/24 00:12:17;;;;;;;18.77;12.93;;;;;;;0.98;89.43;99230.53;6278712;28;20733;-67
2022/01/24 00:15:36;;;;;;;17.17;12.63;;;;;;;0.94;89.38;99234.03;6276345;28;20690;-67
2022/01/24 00:28:39;;;;;;;18.20;12.87;;;;;;;0.88;89.30;99232.41;6277880;28;20717;-67
2022/01/24 00:31:41;;;;;;;18.80;12.93;;;;;;;0.90;89.22;99232.41;6259047;28;20229;-67
2022/01/24 00:34:43;;;;;;;18.43;13.07;;;;;;;0.96;89.74;99229.69;6278663;28;20223;-67
2022/01/24 00:37:45;;;;;;;15.30;11.33;;;;;;;0.95;89.69;99226.22;6260179;28;20246;-68
2022/01/24 00:40:49;;;;;;;18.47;13.37;;;;;;;0.96;89.35;99233.13;6277516;28;20340;-68
2022/01/24 00:44:35;;;;;;;17.33;12.33;;;;;;;0.98;89.17;99225.31;6276098;28;20241;-68
2022/01/24 00:47:27;;;;;;;19.43;12.50;;;;;;;1.00;89.31;99233.91;6277321;28;20231;-68
2022/01/24 00:54:42;;;;;;;17.60;10.53;;;;;;;0.91;89.03;99234.06;6277203;28;20238;-68
2022/01/24 00:57:22;;;;;;;16.00;11.23;;;;;;;0.86;89.27;99228.13;6276432;28;20230;-68
2022/01/24 01:00:24;;;;;;;16.20;12.30;;;;;;;0.82;89.28;99229.03;6277877;28;20226;-68
2022/01/24 01:03:26;;;;;;;17.23;12.20;;;;;;;0.78;89.14;99230.84;6277333;28;20222;-68
2022/01/24 01:06:28;;;;;;;17.83;12.33;;;;;;;0.76;89.42;99230.00;6276642;28;20222;-68
2022/01/24 01:19:32;;;;;;;17.47;11.93;;;;;;;0.71;89.84;99226.63;6276155;28;20725;-68
2022/01/24 01:22:34;;;;;;;17.60;12.63;;;;;;;0.69;89.76;99221.47;6276668;28;20231;-68
2022/01/24 01:25:38;;;;;;;16.80;12.07;;;;;;;0.71;89.55;99218.81;6277144;28;20226;-68
2022/01/24 01:28:44;;;;;;;19.50;12.70;;;;;;;0.78;89.58;99217.00;6276338;28;20245;-68
2022/01/24 01:38:22;;;;;;;17.73;12.37;;;;;;;0.60;89.63;99211.19;6271843;28;20697;-68
2022/01/24 01:58:23;;;;;;;19.00;11.63;;;;;;;0.55;89.89;99205.22;6234786;28;20260;-68
2022/01/24 02:01:25;;;;;;;17.90;12.63;;;;;;;0.55;90.20;99200.03;6276098;28;20227;-68
2022/01/24 02:04:27;;;;;;;20.37;12.47;;;;;;;0.54;90.04;99193.13;6275712;28;20239;-68
2022/01/24 02:07:29;;;;;;;18.70;12.43;;;;;;;0.61;90.41;99201.66;6276410;28;20237;-68
2022/01/24 02:10:34;;;;;;;22.83;14.33;;;;;;;0.53;90.19;99194.00;6276125;28;20253;-68
2022/01/24 02:13:36;;;;;;;20.20;13.33;;;;;;;0.35;89.49;99195.16;6276341;28;20241;-68
2022/01/24 02:20:38;;;;;;;20.93;12.87;;;;;;;-0.02;89.92;99191.38;6275569;28;20230;-68
2022/01/24 02:23:37;;;;;;;19.77;12.03;;;;;;;-0.13;90.10;99198.44;6249814;28;20230;-68
2022/01/24 02:26:40;;;;;;;20.90;12.33;;;;;;;-0.21;90.11;99198.56;6275628;28;20586;-68
2022/01/24 02:29:51;;;;;;;19.07;12.87;;;;;;;-0.28;89.76;99196.88;6275591;28;21010;-68
2022/01/24 02:32:55;;;;;;;20.10;12.63;;;;;;;-0.33;90.07;99193.50;6275718;28;20234;-68
2022/01/24 02:35:57;;;;;;;20.17;12.60;;;;;;;-0.38;90.03;99193.56;6288648;28;20238;-68
2022/01/24 02:39:32;;;;;;;22.03;14.00;;;;;;;-0.43;89.87;99202.28;6276529;28;20287;-68
2022/01/24 02:49:22;;;;;;;18.90;12.40;;;;;;;-0.52;90.13;99203.25;6239026;28;20258;-68
2022/01/24 02:52:26;;;;;;;20.50;12.53;;;;;;;-0.54;90.11;99198.94;6276759;28;20769;-68
2022/01/24 02:55:28;;;;;;;17.03;11.83;;;;;;;-0.55;89.97;99197.22;6276294;28;20230;-68
2022/01/24 02:58:31;;;;;;;20.47;13.23;;;;;;;-0.56;89.88;99203.28;6274207;28;20598;-68
2022/01/24 03:01:33;;;;;;;22.43;13.00;;;;;;;-0.56;90.13;99198.09;6274863;28;20586;-68
2022/01/24 03:04:35;;;;;;;19.73;12.50;;;;;;;-0.56;90.02;99198.09;6275015;28;20230;-68
2022/01/24 03:07:37;;;;;;;19.47;13.07;;;;;;;-0.56;90.20;99195.50;6275480;28;20605;-68
2022/01/24 03:10:43;;;;;;;19.63;12.53;;;;;;;-0.54;89.78;99198.94;6275667;28;20230;-67
2022/01/24 03:13:45;;;;;;;17.80;12.30;;;;;;;-0.54;90.10;99196.34;6282270;28;20335;-68
2022/01/24 03:16:49;;;;;;;24.97;12.40;;;;;;;-0.55;90.09;99200.69;6264500;28;20222;-68
2022/01/24 03:19:51;;;;;;;18.77;11.63;;;;;;;-0.56;89.81;99201.56;6279644;28;20610;-68
2022/01/24 03:22:53;;;;;;;20.43;12.57;;;;;;;-0.55;89.89;99203.28;6278532;28;20237;-68
2022/01/24 03:25:55;;;;;;;21.53;13.47;;;;;;;-0.55;90.17;99205.88;6280439;28;20230;-68
2022/01/24 03:28:57;;;;;;;24.20;13.87;;;;;;;-0.55;90.12;99207.59;6279946;28;20245;-68
2022/01/24 03:31:59;;;;;;;20.53;12.87;;;;;;;-0.54;89.74;99214.50;6279396;28;20234;-67
2022/01/24 03:35:01;;;;;;;19.93;12.40;;;;;;;-0.53;90.08;99226.59;6279315;28;20238;-69
2022/01/24 03:38:03;;;;;;;22.73;13.90;;;;;;;-0.49;89.98;99230.84;6260798;28;20288;-67
2022/01/24 03:41:05;;;;;;;21.97;12.83;;;;;;;-0.48;89.98;99229.97;6278946;28;20249;-67
2022/01/24 03:44:12;;;;;;;22.33;12.60;;;;;;;-0.46;89.77;99234.28;6279017;28;20613;-67
2022/01/24 03:47:42;;;;;;;17.80;11.53;;;;;;;-0.43;89.66;99243.78;6278654;28;20227;-67
2022/01/24 03:50:44;;;;;;;21.43;12.07;;;;;;;-0.41;90.08;99247.22;6254412;28;20223;-70
2022/01/24 03:53:47;;;;;;;21.23;12.40;;;;;;;-0.43;89.59;99244.63;6275465;28;20708;-67
2022/01/24 03:56:49;;;;;;;20.00;11.33;;;;;;;-0.45;89.71;99254.16;6277432;28;20230;-67
2022/01/24 03:59:52;;;;;;;16.57;11.70;;;;;;;-0.45;89.80;99251.56;6278209;28;20716;-67
2022/01/24 04:02:54;;;;;;;17.07;10.97;;;;;;;-0.46;90.04;99254.16;6278590;28;20734;-67
2022/01/24 04:05:57;;;;;;;18.93;12.33;;;;;;;-0.48;89.59;99253.31;6278399;28;20230;-67
2022/01/24 04:08:59;;;;;;;19.73;11.33;;;;;;;-0.51;89.47;99253.38;6278994;28;20709;-67
2022/01/24 04:12:03;;;;;;;19.33;12.77;;;;;;;-0.54;89.95;99251.66;6278555;28;20762;-67
2022/01/24 04:15:13;;;;;;;17.70;12.40;;;;;;;-0.55;89.85;99246.50;6279186;28;20210;-67
2022/01/24 04:21:33;;;;;;;21.07;10.77;;;;;;;-0.60;89.76;99258.66;6263125;28;20222;-67
2022/01/24 04:24:36;;;;;;;18.13;11.60;;;;;;;-0.62;89.35;99261.25;6277722;28;20225;-67
2022/01/24 04:27:38;;;;;;;26.47;12.03;;;;;;;-0.63;89.32;99251.75;6278323;28;20713;-67
2022/01/24 04:30:40;;;;;;;17.97;12.10;;;;;;;-0.63;89.56;99258.69;6277728;28;20297;-67
2022/01/24 04:33:42;;;;;;;21.47;12.83;;;;;;;-0.66;89.30;99254.38;6278039;28;20663;-67
2022/01/24 04:36:44;;;;;;;17.57;11.60;;;;;;;-0.67;89.22;99259.56;6278394;28;20222;-67
2022/01/24 04:39:47;;;;;;;16.70;11.63;;;;;;;-0.70;89.02;99255.31;6277831;28;20720;-67
2022/01/24 04:42:56;;;;;;;18.80;12.30;;;;;;;-0.71;89.23;99251.00;6277374;28;20647;-67
2022/01/24 04:52:30;;;;;;;14.30;9.67;;;;;;;-0.63;89.18;99251.75;6276318;28;20238;-67
2022/01/24 04:55:32;;;;;;;19.50;11.57;;;;;;;-0.60;88.88;99256.91;6278130;28;21069;-67
2022/01/24 04:58:34;;;;;;;17.67;11.43;;;;;;;-0.59;89.48;99262.94;6277173;28;20241;-67
2022/01/24 05:01:36;;;;;;;16.23;11.67;;;;;;;-0.58;88.96;99262.06;6277282;28;20718;-67
2022/01/24 05:04:38;;;;;;;20.03;12.57;;;;;;;-0.60;89.08;99258.66;6277695;28;20718;-67
2022/01/24 05:07:40;;;;;;;20.93;12.83;;;;;;;-0.61;89.00;99265.56;6278377;28;20234;-67
2022/01/24 05:10:57;;;;;;;19.30;11.73;;;;;;;-0.62;89.47;99269.03;6276428;28;20218;-67
2022/01/24 05:24:01;;;;;;;16.77;10.63;;;;;;;-0.69;89.26;99280.31;6277021;28;20230;-67
2022/01/24 05:27:04;;;;;;;19.07;11.93;;;;;;;-0.68;89.21;99284.63;6276358;28;20585;-67
2022/01/24 05:30:10;;;;;;;19.57;12.63;;;;;;;-0.68;89.26;99286.38;6276422;28;20225;-67
2022/01/24 05:33:12;;;;;;;19.13;12.03;;;;;;;-0.69;89.01;99282.91;6276265;28;20677;-67
2022/01/24 05:36:14;;;;;;;16.00;11.13;;;;;;;-0.68;89.11;99282.03;6276292;28;20273;-67
2022/01/24 05:39:16;;;;;;;22.63;13.03;;;;;;;-0.67;89.20;99286.34;6259365;28;20585;-67
2022/01/24 05:42:21;;;;;;;18.27;11.47;;;;;;;-0.68;89.21;99283.78;6275938;28;20231;-67
2022/01/24 05:45:24;;;;;;;18.30;11.60;;;;;;;-0.70;89.16;99289.00;6278763;28;20646;-67
2022/01/24 05:48:27;;;;;;;17.67;11.90;;;;;;;-0.67;89.12;99285.50;6277072;28;20463;-67
2022/01/24 05:51:30;;;;;;;20.23;12.33;;;;;;;-0.67;89.38;99285.50;6276925;28;20229;-67
2022/01/24 05:54:32;;;;;;;23.10;13.07;;;;;;;-0.69;89.12;99280.31;6266095;28;20230;-67
2022/01/24 05:57:36;;;;;;;19.67;11.43;;;;;;;-0.69;89.31;99287.25;6269349;28;20238;-67
2022/01/24 06:00:38;;;;;;;11.87;8.23;;;;;;;-0.69;89.42;99293.28;6276705;28;20765;-67
2022/01/24 06:03:40;;;;;;;10.37;7.97;;;;;;;-0.73;89.10;99296.78;6275952;28;20226;-67
2022/01/24 06:06:42;;;;;;;13.10;8.20;;;;;;;-0.79;89.11;99305.47;6257726;28;20769;-67
2022/01/24 06:09:44;;;;;;;9.23;7.13;;;;;;;-0.82;89.19;99302.94;6276558;28;20226;-67
2022/01/24 06:12:46;;;;;;;10.10;7.10;;;;;;;-0.84;89.26;99296.88;6275719;28;20222;-67
2022/01/24 06:15:48;;;;;;;11.80;7.97;;;;;;;-0.85;88.96;99300.34;6276040;28;20299;-67
2022/01/24 06:18:50;;;;;;;9.93;7.23;;;;;;;-0.91;89.17;99297.81;6275525;28;20245;-67
2022/01/24 06:21:53;;;;;;;9.07;6.87;;;;;;;-0.92;89.15;99301.28;6273822;28;20222;-67
2022/01/24 06:24:55;;;;;;;10.30;7.27;;;;;;;-0.93;88.98;99307.34;6258340;28;20693;-67
2022/01/24 06:28:15;;;;;;;8.47;6.47;;;;;;;-0.92;89.08;99308.19;6276487;28;20833;-67
2022/01/24 06:31:19;;;;;;;9.30;7.13;;;;;;;-0.92;88.91;99300.44;6275894;28;20226;-67
2022/01/24 06:34:21;;;;;;;6.73;5.60;;;;;;;-0.90;88.92;99307.28;6258341;28;20697;-67
2022/01/24 06:37:25;;;;;;;7.57;6.37;;;;;;;-0.87;88.96;99314.19;6275467;28;20720;-67
2022/01/24 06:40:27;;;;;;;8.17;5.60;;;;;;;-0.86;88.98;99316.78;6276442;28;20278;-67
2022/01/24 06:43:29;;;;;;;7.13;5.67;;;;;;;-0.81;88.96;99320.19;6275631;28;20321;-67
2022/01/24 06:46:31;;;;;;;6.37;5.67;;;;;;;-0.78;89.02;99322.75;6241030;28;20732;-67
2022/01/24 06:49:35;;;;;;;8.57;6.37;;;;;;;-0.75;89.13;99327.03;6281330;28;20238;-67
2022/01/24 06:52:37;;;;;;;9.73;7.13;;;;;;;-0.72;88.92;99326.16;6262679;28;20237;-67
2022/01/24 06:55:39;;;;;;;10.30;7.87;;;;;;;-0.69;88.96;99333.91;6279597;28;20829;-67
2022/01/24 06:58:41;;;;;;;11.53;8.07;;;;;;;-0.66;88.76;99333.88;6279525;28;20238;-67
2022/01/24 07:01:43;;;;;;;11.97;8.87;;;;;;;-0.66;88.74;99332.16;6279806;28;20231;-67
2022/01/24 07:04:46;;;;;;;13.77;9.53;;;;;;;-0.64;88.73;99329.53;6261994;28;20210;-67
2022/01/24 07:07:53;;;;;;;13.97;9.17;;;;;;;-0.62;88.77;99327.81;6246352;28;20418;-67
2022/01/24 07:10:55;;;;;;;14.17;9.93;;;;;;;-0.57;88.81;99328.59;6279643;28;20227;-67
2022/01/24 07:13:57;;;;;;;15.53;11.07;;;;;;;-0.56;88.63;99325.16;6280174;28;20227;-67
2022/01/24 07:20:02;;;;;;;18.10;11.77;;;;;;;-0.52;88.72;99340.66;6262514;28;20605;-67
2022/01/24 07:23:04;;;;;;;15.67;10.77;;;;;;;-0.49;89.00;99337.16;6278825;28;20234;-67
2022/01/24 07:26:06;;;;;;;15.13;10.87;;;;;;;-0.48;88.48;99346.66;6279568;28;20733;-67
2022/01/24 07:29:09;;;;;;;15.53;10.77;;;;;;;-0.47;88.25;99348.41;6278993;28;20229;-67
2022/01/24 07:32:13;;;;;;;16.67;10.80;;;;;;;-0.47;88.18;99356.16;6278691;28;20717;-67
2022/01/24 07:35:15;;;;;;;21.23;12.27;;;;;;;-0.50;88.39;99362.25;6278504;28;20730;-67
2022/01/24 07:38:17;;;;;;;17.50;11.93;;;;;;;-0.52;88.16;99365.75;6281977;28;20789;-67
2022/01/24 07:41:28;;;;;;;19.70;12.30;;;;;;;-0.55;88.32;99378.72;6278381;28;20376;-67
2022/01/24 07:44:31;;;;;;;22.50;12.67;;;;;;;-0.52;88.15;99376.13;6278918;28;20238;-67
2022/01/24 07:47:33;;;;;;;18.93;12.23;;;;;;;-0.48;88.14;99380.38;6278793;28;20226;-67
2022/01/24 07:50:37;;;;;;;17.40;12.57;;;;;;;-0.46;88.03;99386.41;6277758;28;20307;-67
2022/01/24 07:53:42;;;;;;;16.60;11.13;;;;;;;-0.45;88.47;99390.72;6278017;28;20689;-67
2022/01/24 07:56:51;;;;;;;17.50;12.27;;;;;;;-0.41;88.05;99403.69;6278519;28;20230;-73
2022/01/24 07:59:54;;;;;;;15.50;11.37;;;;;;;-0.35;88.35;99404.47;6260471;28;20245;-67
2022/01/24 08:02:57;;;;;;;18.83;11.60;;;;;;;-0.27;87.74;99394.88;6278617;28;20632;-67
2022/01/24 08:05:59;;;;;;;23.80;13.77;;;;;;;-0.17;87.87;99404.31;6278244;28;20230;-67
2022/01/24 08:09:01;;;;;;;20.80;12.53;;;;;;;-0.14;88.00;99401.69;6259960;28;20612;-67
2022/01/24 08:12:05;;;;;;;19.73;12.63;;;;;;;-0.07;87.65;99405.94;6278327;28;20227;-67
2022/01/24 08:15:11;;;;;;;20.67;13.60;;;;;;;-0.03;87.47;99408.50;6279336;28;20589;-67
2022/01/24 08:18:14;;;;;;;20.70;14.00;;;;;;;0.00;87.17;99412.81;6260124;28;20668;-68
2022/01/24 08:21:16;;;;;;;20.30;13.40;;;;;;;-0.02;87.52;99417.13;6278134;28;20300;-68
2022/01/24 08:24:18;;;;;;;17.83;12.43;;;;;;;0.00;87.44;99423.19;6277704;28;20690;-67
2022/01/24 08:27:20;;;;;;;19.13;12.73;;;;;;;0.03;87.02;99419.66;6278481;28;20328;-67
2022/01/24 08:30:24;;;;;;;17.90;12.10;;;;;;;0.07;87.26;99424.84;6267181;28;20693;-68
2022/01/24 08:33:26;;;;;;;17.17;12.13;;;;;;;0.17;87.29;99421.25;6276606;28;20229;-68
2022/01/24 08:36:28;;;;;;;15.97;11.33;;;;;;;0.25;86.97;99424.63;6277937;28;20309;-68
2022/01/24 08:39:30;;;;;;;15.47;11.13;;;;;;;0.32;86.95;99422.81;6259814;28;20672;-67
2022/01/24 08:45:58;;;;;;;14.83;10.93;;;;;;;0.30;86.25;99422.81;6260538;28;20222;-67
2022/01/24 08:49:00;;;;;;;18.30;12.07;;;;;;;0.41;86.10;99422.69;6259674;28;20257;-68
2022/01/24 08:52:02;;;;;;;14.10;10.43;;;;;;;0.43;85.69;99438.28;6277456;28;20625;-67
2022/01/24 08:55:08;;;;;;;16.47;11.33;;;;;;;0.42;85.93;99436.56;6276751;28;20215;-67
2022/01/24 08:58:13;;;;;;;13.10;9.80;;;;;;;0.33;85.33;99443.56;6276049;28;20706;-67
2022/01/24 09:01:15;;;;;;;12.00;9.13;;;;;;;0.21;85.03;99442.84;6260288;28;20254;-68
2022/01/24 09:04:17;;;;;;;12.10;8.77;;;;;;;0.20;85.19;99443.75;6276756;28;20592;-68
2022/01/24 09:07:20;;;;;;;10.47;7.90;;;;;;;0.21;84.37;99440.25;6259079;28;20226;-68
2022/01/24 09:10:25;;;;;;;10.93;7.77;;;;;;;0.07;84.49;99455.13;6258187;28;20244;-68
2022/01/24 09:13:28;;;;;;;10.27;7.73;;;;;;;0.03;84.36;99453.41;6258729;28;20856;-68
2022/01/24 09:16:30;;;;;;;10.47;7.97;;;;;;;0.11;84.60;99454.19;6275695;28;20237;-68
2022/01/24 09:19:32;;;;;;;11.93;8.83;;;;;;;0.15;84.29;99451.56;6276317;28;20311;-68
2022/01/24 09:22:35;;;;;;;11.00;8.20;;;;;;;0.19;83.81;99455.84;6259237;28;20234;-67
2022/01/24 09:25:37;;;;;;;11.63;8.77;;;;;;;0.16;84.28;99458.47;6276911;28;20642;-67
2022/01/24 09:28:39;;;;;;;10.93;8.70;;;;;;;0.16;83.89;99470.59;6277083;28;20226;-68
2022/01/24 09:31:41;;;;;;;11.53;8.47;;;;;;;0.14;83.70;99475.78;6276805;28;20702;-68
2022/01/24 09:34:43;;;;;;;13.87;9.77;;;;;;;0.11;83.88;99481.00;6276229;28;20226;-68
2022/01/24 09:37:47;;;;;;;13.50;9.70;;;;;;;0.07;84.29;99481.94;6276587;28;20234;-68
2022/01/24 09:40:49;;;;;;;14.40;9.97;;;;;;;0.10;84.01;99478.47;6275815;28;20226;-67
2022/01/24 09:43:51;;;;;;;15.93;10.57;;;;;;;-0.01;83.51;99474.22;6259099;28;20740;-68
2022/01/24 09:46:53;;;;;;;14.27;9.67;;;;;;;-0.04;83.74;99474.25;6258293;28;20775;-68
2022/01/24 09:49:56;;;;;;;17.40;10.00;;;;;;;-0.15;83.43;99476.06;6275982;28;20242;-68
2022/01/24 09:52:59;;;;;;;17.77;11.70;;;;;;;-0.18;83.74;99475.22;6276402;28;20226;-67
2022/01/24 09:56:03;;;;;;;17.93;11.60;;;;;;;-0.24;83.96;99483.94;6258080;28;20258;-68
2022/01/24 09:59:06;;;;;;;21.53;12.43;;;;;;;-0.46;83.44;99478.03;6276304;28;20786;-68
2022/01/24 10:02:08;;;;;;;17.97;11.27;;;;;;;-0.48;83.95;99479.78;6275873;28;20714;-68
2022/01/24 10:05:12;;;;;;;20.97;13.00;;;;;;;-0.53;83.61;99478.97;6274973;28;20226;-68
2022/01/24 10:08:16;;;;;;;18.23;11.80;;;;;;;-0.47;83.47;99481.50;6276813;28;20233;-67
2022/01/24 10:11:18;;;;;;;19.63;12.20;;;;;;;-0.44;83.23;99475.44;6275406;28;20587;-68
2022/01/24 10:18:01;;;;;;;22.47;13.23;;;;;;;-0.11;82.98;99470.00;6276783;28;20234;-68
2022/01/24 10:21:17;;;;;;;17.63;12.33;;;;;;;0.06;81.95;99462.03;6276184;28;20321;-68
2022/01/24 10:24:43;;;;;;;20.57;13.13;;;;;;;0.01;81.12;99461.22;6280912;28;20218;-68
2022/01/24 10:27:45;;;;;;;20.03;12.53;;;;;;;0.07;81.87;99457.72;6246586;28;20317;-68
2022/01/24 10:31:00;;;;;;;20.23;12.57;;;;;;;0.27;81.27;99451.44;6280485;28;20287;-67
2022/01/24 10:37:21;;;;;;;16.67;12.63;;;;;;;0.76;80.52;99440.47;6279795;28;20267;-68
2022/01/24 10:40:46;;;;;;;17.40;12.03;;;;;;;1.03;79.70;99434.03;6280513;28;20727;-68
2022/01/24 10:43:50;;;;;;;18.73;11.57;;;;;;;1.29;77.93;99426.75;6280394;28;20245;-68
2022/01/24 10:46:52;;;;;;;20.87;12.23;;;;;;;1.45;77.60;99432.56;6282993;28;20230;-68
2022/01/24 10:49:56;;;;;;;15.23;11.03;;;;;;;1.46;77.30;99427.31;6279780;28;20803;-68
2022/01/24 10:53:10;;;;;;;18.37;12.63;;;;;;;1.47;77.12;99436.00;6262227;28;20258;-68
2022/01/24 10:56:40;;;;;;;16.70;10.67;;;;;;;1.56;76.84;99441.03;6280212;28;20519;-68
2022/01/24 10:59:42;;;;;;;17.23;11.13;;;;;;;1.64;76.39;99440.91;6280423;28;20226;-68
2022/01/24 11:02:48;;;;;;;18.30;11.57;;;;;;;1.69;76.51;99433.91;6280241;28;20759;-72
2022/01/24 11:05:51;;;;;;;16.40;10.33;;;;;;;1.73;76.30;99426.00;6261380;28;20252;-68
2022/01/24 11:09:35;;;;;;;17.13;11.67;;;;;;;1.85;75.52;99428.41;6279589;28;20234;-68
2022/01/24 11:12:37;;;;;;;16.43;10.73;;;;;;;1.96;75.14;99429.97;6274935;28;20694;-68
2022/01/24 11:15:46;;;;;;;16.53;11.40;;;;;;;2.04;74.74;99430.69;6279946;28;20768;-67
2022/01/24 11:18:49;;;;;;;18.97;10.93;;;;;;;2.07;74.43;99428.03;6279980;28;20223;-68
2022/01/24 11:21:53;;;;;;;19.43;11.57;;;;;;;2.03;74.62;99423.75;6280552;28;20241;-68
2022/01/24 11:25:04;;;;;;;18.60;12.17;;;;;;;2.00;74.67;99424.66;6279291;28;21005;-68
2022/01/24 11:28:11;;;;;;;16.67;10.70;;;;;;;2.00;74.13;99422.06;6279210;28;20242;-68
2022/01/24 11:31:38;;;;;;;17.13;11.70;;;;;;;1.97;74.57;99418.66;6284448;28;20241;-67
2022/01/24 11:34:42;;;;;;;15.63;10.37;;;;;;;1.99;74.43;99406.50;6278465;28;20226;-67
2022/01/24 11:37:45;;;;;;;21.73;12.03;;;;;;;2.05;74.45;99407.22;6279485;28;20237;-68
2022/01/24 11:40:48;;;;;;;16.27;10.50;;;;;;;2.16;74.28;99401.81;6278863;28;20230;-68
2022/01/24 11:43:56;;;;;;;15.70;10.17;;;;;;;2.21;74.19;99405.19;6278494;28;20617;-68
2022/01/24 11:46:59;;;;;;;17.30;11.63;;;;;;;2.16;73.93;99410.50;6279239;28;20241;-68
2022/01/24 11:50:24;;;;;;;19.30;13.37;;;;;;;2.17;74.35;99407.00;6278854;28;20237;-67
2022/01/24 11:53:28;;;;;;;18.87;12.53;;;;;;;2.21;73.86;99403.44;6274735;28;20228;-68
2022/01/24 11:56:32;;;;;;;20.27;13.33;;;;;;;2.18;74.01;99406.13;6276341;28;20226;-68
2022/01/24 11:59:35;;;;;;;18.30;11.43;;;;;;;2.19;74.31;99396.56;6279093;28;20227;-68
2022/01/24 12:02:44;;;;;;;18.13;12.33;;;;;;;2.27;73.69;99404.22;6278005;28;20234;-68
2022/01/24 12:05:56;;;;;;;16.73;12.30;;;;;;;2.31;73.68;99396.31;6277355;28;20254;-68
2022/01/24 12:09:24;;;;;;;18.57;12.77;;;;;;;2.42;73.61;99390.88;6278156;28;20239;-68
2022/01/24 12:12:43;;;;;;;18.43;12.90;;;;;;;2.50;73.06;99389.81;6278249;28;20233;-68
2022/01/24 12:15:48;;;;;;;23.10;11.60;;;;;;;2.46;72.99;99397.75;6277106;28;20223;-68
2022/01/24 12:18:57;;;;;;;16.27;12.27;;;;;;;2.31;73.15;99391.09;6278798;28;20286;-68
2022/01/24 12:21:59;;;;;;;16.27;10.93;;;;;;;2.27;73.24;99386.84;6261064;28;20630;-68
2022/01/24 12:25:01;;;;;;;19.10;11.53;;;;;;;2.29;73.33;99392.88;6277355;28;20686;-68
2022/01/24 12:28:26;;;;;;;16.27;11.10;;;;;;;2.31;73.23;99390.22;6260028;28;20277;-68
2022/01/24 12:31:30;;;;;;;13.67;9.70;;;;;;;2.27;72.99;99389.44;6278127;28;20233;-68
2022/01/24 12:34:50;;;;;;;14.13;10.27;;;;;;;2.22;73.51;99386.91;6277429;28;20234;-68
2022/01/24 12:38:15;;;;;;;12.47;9.67;;;;;;;2.12;73.39;99395.78;6278070;28;20238;-68
2022/01/24 12:41:18;;;;;;;14.13;9.57;;;;;;;2.04;74.69;99391.63;6277230;28;20614;-68
2022/01/24 12:47:49;;;;;;;18.70;12.97;;;;;;;1.93;75.06;99394.44;6248430;28;20233;-68
2022/01/24 12:50:53;;;;;;;19.23;13.83;;;;;;;1.89;75.58;99387.56;6277924;28;20239;-68
2022/01/24 12:53:57;;;;;;;21.93;13.50;;;;;;;1.84;75.08;99384.19;6277488;28;20752;-68
2022/01/24 12:57:05;;;;;;;20.73;14.10;;;;;;;1.75;75.77;99387.81;6260711;28;20227;-68
2022/01/24 13:00:17;;;;;;;18.80;13.33;;;;;;;1.78;75.65;99381.69;6277816;28;20273;-67
2022/01/24 13:03:19;;;;;;;19.17;13.37;;;;;;;1.70;75.57;99381.81;6276778;28;20266;-68
2022/01/24 13:06:21;;;;;;;22.37;13.57;;;;;;;1.65;76.06;99385.38;6277131;28;20230;-67
2022/01/24 13:09:26;;;;;;;19.57;13.83;;;;;;;1.61;76.33;99383.72;6276300;28;20236;-68
2022/01/24 13:12:28;;;;;;;19.03;13.63;;;;;;;1.54;76.33;99375.16;6274619;28;20238;-67
2022/01/24 13:22:30;;;;;;;25.57;15.43;;;;;;;1.41;77.57;99369.31;6276424;28;20322;-67
2022/01/24 13:25:37;;;;;;;21.77;15.27;;;;;;;1.39;77.64;99365.88;6277068;28;20234;-68
2022/01/24 13:28:39;;;;;;;23.07;14.97;;;;;;;1.43;77.86;99366.69;6275091;28;20339;-67
2022/01/24 13:31:49;;;;;;;25.03;15.83;;;;;;;1.42;77.76;99367.56;6276327;28;20599;-68
2022/01/24 13:35:18;;;;;;;27.40;16.67;;;;;;;1.42;77.54;99370.16;6276910;28;20643;-67
2022/01/24 13:38:25;;;;;;;25.13;16.30;;;;;;;1.42;77.82;99371.03;6281876;28;20237;-68
2022/01/24 13:41:28;;;;;;;26.73;17.17;;;;;;;1.38;77.69;99371.97;6276522;28;20283;-67
2022/01/24 13:44:30;;;;;;;27.83;17.93;;;;;;;1.35;78.31;99369.41;6276327;28;20226;-67
2022/01/24 13:47:32;;;;;;;27.53;17.60;;;;;;;1.29;77.72;99373.88;6276213;28;20229;-67
2022/01/24 13:50:34;;;;;;;25.37;16.87;;;;;;;1.16;78.54;99377.53;6275037;28;20234;-67
2022/01/24 13:53:42;;;;;;;25.03;17.20;;;;;;;1.06;78.77;99376.81;6258256;28;20237;-67
2022/01/24 13:56:52;;;;;;;25.93;16.40;;;;;;;0.90;78.64;99376.16;6274706;28;20222;-68
2022/01/24 14:00:07;;;;;;;24.90;16.17;;;;;;;0.86;79.32;99381.44;6276250;28;20230;-67
2022/01/24 14:03:12;;;;;;;21.80;16.07;;;;;;;0.84;79.64;99380.59;6274111;28;20239;-67
2022/01/24 14:06:25;;;;;;;24.47;15.87;;;;;;;0.84;80.01;99378.00;6275531;28;20226;-67
2022/01/24 14:09:41;;;;;;;24.63;16.93;;;;;;;0.81;79.50;99384.09;6268027;28;20234;-67
2022/01/24 14:12:46;;;;;;;23.03;15.90;;;;;;;0.80;79.74;99390.16;6259285;28;20233;-67
2022/01/24 14:15:56;;;;;;;24.37;15.70;;;;;;;0.78;79.84;99391.94;6275715;28;20220;-67
2022/01/24 14:19:03;;;;;;;24.23;16.00;;;;;;;0.74;79.85;99391.13;6276221;28;20313;-68
2022/01/24 14:22:11;;;;;;;24.67;16.43;;;;;;;0.70;80.40;99389.44;6275355;28;20233;-67
2022/01/24 14:25:26;;;;;;;26.50;17.53;;;;;;;0.64;80.08;99394.72;6252226;28;20242;-67
2022/01/24 14:28:28;;;;;;;23.90;15.77;;;;;;;0.59;80.64;99395.66;6274025;28;20710;-67
2022/01/24 14:31:31;;;;;;;24.93;16.50;;;;;;;0.55;80.38;99388.78;6253887;28;20240;-67
2022/01/24 14:34:33;;;;;;;27.00;16.63;;;;;;;0.48;81.08;99385.41;6275906;28;20226;-67
2022/01/24 14:37:52;;;;;;;38.37;23.27;;;;;;;0.31;81.26;99388.19;6276279;28;20230;-67
2022/01/24 14:40:57;;;;;;;38.33;22.40;;;;;;;0.17;81.51;99387.50;6281315;28;20713;-67
2022/01/24 14:47:24;;;;;;;37.03;22.47;;;;;;;0.05;82.05;99390.25;6275468;28;20227;-67
2022/01/24 14:50:26;;;;;;;40.10;23.77;;;;;;;0.03;82.05;99393.72;6276045;28;20587;-73
2022/01/24 14:53:29;;;;;;;39.80;25.20;;;;;;;-0.06;82.19;99389.50;6275235;28;20706;-67
2022/01/24 14:56:33;;;;;;;40.90;22.57;;;;;;;-0.12;82.69;99395.63;6242093;28;20591;-68
2022/01/24 14:59:38;;;;;;;43.20;27.07;;;;;;;-0.19;82.54;99388.75;6276060;28;20226;-67
2022/01/24 15:26:26;;;;;;;45.13;25.37;;;;;;;-0.55;83.94;99397.72;6279423;28;20605;-67
2022/01/24 15:29:30;;;;;;;35.33;20.70;;;;;;;-0.56;84.38;99408.13;6278552;28;20236;-67
2022/01/24 15:32:31;;;;;;;39.07;21.33;;;;;;;-0.58;84.40;99399.47;6279602;28;20791;-67
2022/01/24 15:35:33;;;;;;;34.13;21.27;;;;;;;-0.58;84.63;99402.94;6280497;28;20222;-67
2022/01/24 15:38:37;;;;;;;37.30;21.37;;;;;;;-0.55;84.87;99407.25;6261031;28;20222;-66
2022/01/24 15:42:02;;;;;;;35.60;21.50;;;;;;;-0.56;84.46;99400.34;6278082;28;20713;-66
2022/01/24 15:48:10;;;;;;;34.93;21.17;;;;;;;-0.55;84.77;99389.09;6279112;28;20654;-67
2022/01/24 15:51:12;;;;;;;33.50;19.23;;;;;;;-0.57;84.58;99383.06;6278648;28;20238;-67
2022/01/24 15:54:17;;;;;;;36.20;22.27;;;;;;;-0.59;84.77;99387.38;6260022;28;20210;-67
2022/01/24 16:00:41;;;;;;;42.27;24.50;;;;;;;-0.67;84.86;99390.03;6278920;28;20259;-67
2022/01/24 16:03:44;;;;;;;42.50;23.93;;;;;;;-0.68;85.20;99388.31;6279221;28;20769;-73
2022/01/24 16:06:46;;;;;;;41.13;24.13;;;;;;;-0.69;84.93;99396.97;6278536;28;20218;-67
2022/01/24 16:09:48;;;;;;;35.20;20.77;;;;;;;-0.70;85.12;99399.59;6278553;28;20218;-67
2022/01/24 16:12:50;;;;;;;32.57;18.87;;;;;;;-0.72;85.35;99397.03;6260394;28;20218;-67
2022/01/24 16:15:52;;;;;;;30.87;18.97;;;;;;;-0.71;85.38;99403.06;6261050;28;20257;-68
2022/01/24 16:18:54;;;;;;;33.73;20.60;;;;;;;-0.73;85.22;99403.06;6278815;28;20218;-67
2022/01/24 16:22:15;;;;;;;37.43;22.63;;;;;;;-0.76;84.85;99396.16;6278169;28;20226;-67
2022/01/24 16:25:37;;;;;;;31.20;20.67;;;;;;;-0.78;84.97;99399.63;6278486;28;20256;-67
2022/01/24 16:28:39;;;;;;;39.33;21.17;;;;;;;-0.77;85.67;99398.78;6278059;28;20759;-67
2022/01/24 16:31:41;;;;;;;34.17;21.20;;;;;;;-0.79;85.30;99398.78;6277894;28;20249;-67
2022/01/24 16:34:43;;;;;;;32.83;19.47;;;;;;;-0.79;85.80;99397.91;6277183;28;20714;-67